sensor_id;sensor_type;location;lat;lon;timestamp;P1;durP1;ratioP1;P2;durP2;ratioP2
36303;SDS011;22335;49.800;8.596;2023-04-08T00:02:02;6.00;;;5.60;;
36303;SDS011;22335;49.800;8.596;2023-04-08T00:08:45;5.72;;;5.40;;
36303;SDS011;22335;49.800;8.596;2023-04-08T00:15:29;7.32;;;6.93;;
36303;SDS011;22335;49.800;8.596;2023-04-08T00:22:14;6.97;;;6.47;;
36303;SDS011;22335;49.800;8.596;2023-04-08T00:28:58;7.30;;;6.90;;
36303;SDS011;22335;49.800;8.596;2023-04-08T00:35:44;7.00;;;6.50;;
36303;SDS011;22335;49.800;8.596;2023-04-08T00:42:29;7.88;;;7.38;;
36303;SDS011;22335;49.800;8.596;2023-04-08T00:49:12;8.32;;;7.72;;
36303;SDS011;22335;49.800;8.596;2023-04-08T00:55:56;9.00;;;8.40;;
36303;SDS011;22335;49.800;8.596;2023-04-08T01:09:39;10.73;;;10.02;;
36303;SDS011;22335;49.800;8.596;2023-04-08T01:16:30;10.38;;;9.77;;
36303;SDS011;22335;49.800;8.596;2023-04-08T01:23:15;9.13;;;8.57;;
36303;SDS011;22335;49.800;8.596;2023-04-08T01:30:07;9.98;;;9.32;;
36303;SDS011;22335;49.800;8.596;2023-04-08T01:36:51;9.98;;;9.05;;
36303;SDS011;22335;49.800;8.596;2023-04-08T01:43:38;10.30;;;9.60;;
36303;SDS011;22335;49.800;8.596;2023-04-08T01:50:25;10.23;;;9.48;;
36303;SDS011;22335;49.800;8.596;2023-04-08T01:57:11;9.70;;;9.10;;
36303;SDS011;22335;49.800;8.596;2023-04-08T02:04:00;9.75;;;9.05;;
36303;SDS011;22335;49.800;8.596;2023-04-08T02:10:47;9.23;;;8.63;;
36303;SDS011;22335;49.800;8.596;2023-04-08T02:17:32;8.95;;;8.35;;
36303;SDS011;22335;49.800;8.596;2023-04-08T02:24:22;10.32;;;9.65;;
36303;SDS011;22335;49.800;8.596;2023-04-08T02:37:58;9.57;;;8.90;;
36303;SDS011;22335;49.800;8.596;2023-04-08T02:44:42;9.02;;;8.45;;
36303;SDS011;22335;49.800;8.596;2023-04-08T03:06:29;8.23;;;7.72;;
36303;SDS011;22335;49.800;8.596;2023-04-08T03:13:13;8.70;;;8.07;;
36303;SDS011;22335;49.800;8.596;2023-04-08T03:19:56;9.30;;;8.60;;
36303;SDS011;22335;49.800;8.596;2023-04-08T03:26:41;8.85;;;8.23;;
36303;SDS011;22335;49.800;8.596;2023-04-08T03:33:24;9.05;;;8.45;;
36303;SDS011;22335;49.800;8.596;2023-04-08T03:40:08;7.90;;;7.40;;
36303;SDS011;22335;49.800;8.596;2023-04-08T03:46:54;8.38;;;7.82;;
36303;SDS011;22335;49.800;8.596;2023-04-08T03:53:38;8.50;;;7.80;;
36303;SDS011;22335;49.800;8.596;2023-04-08T04:00:21;8.50;;;7.85;;
36303;SDS011;22335;49.800;8.596;2023-04-08T04:07:06;9.07;;;8.38;;
36303;SDS011;22335;49.800;8.596;2023-04-08T04:13:49;9.38;;;8.68;;
36303;SDS011;22335;49.800;8.596;2023-04-08T04:20:33;9.30;;;8.60;;
36303;SDS011;22335;49.800;8.596;2023-04-08T04:27:19;11.02;;;10.10;;
36303;SDS011;22335;49.800;8.596;2023-04-08T04:34:03;10.48;;;9.68;;
36303;SDS011;22335;49.800;8.596;2023-04-08T04:40:46;10.55;;;9.68;;
36303;SDS011;22335;49.800;8.596;2023-04-08T04:47:31;11.32;;;10.27;;
36303;SDS011;22335;49.800;8.596;2023-04-08T04:54:14;12.80;;;11.60;;
36303;SDS011;22335;49.800;8.596;2023-04-08T05:00:58;20.55;;;18.95;;
36303;SDS011;22335;49.800;8.596;2023-04-08T05:07:43;27.13;;;22.17;;
36303;SDS011;22335;49.800;8.596;2023-04-08T05:14:27;15.52;;;14.05;;
36303;SDS011;22335;49.800;8.596;2023-04-08T05:21:11;14.20;;;13.00;;
36303;SDS011;22335;49.800;8.596;2023-04-08T05:27:56;13.13;;;12.02;;
36303;SDS011;22335;49.800;8.596;2023-04-08T05:34:39;13.90;;;12.70;;
36303;SDS011;22335;49.800;8.596;2023-04-08T05:41:23;14.38;;;13.18;;
36303;SDS011;22335;49.800;8.596;2023-04-08T05:48:08;13.93;;;12.80;;
36303;SDS011;22335;49.800;8.596;2023-04-08T05:54:51;13.98;;;12.77;;
36303;SDS011;22335;49.800;8.596;2023-04-08T06:01:35;14.15;;;13.05;;
36303;SDS011;22335;49.800;8.596;2023-04-08T06:08:19;14.80;;;13.40;;
36303;SDS011;22335;49.800;8.596;2023-04-08T06:15:04;16.20;;;14.70;;
36303;SDS011;22335;49.800;8.596;2023-04-08T06:21:49;16.08;;;14.77;;
36303;SDS011;22335;49.800;8.596;2023-04-08T06:28:34;15.55;;;14.18;;
36303;SDS011;22335;49.800;8.596;2023-04-08T06:35:17;15.88;;;14.30;;
36303;SDS011;22335;49.800;8.596;2023-04-08T06:42:02;15.70;;;13.98;;
36303;SDS011;22335;49.800;8.596;2023-04-08T06:48:59;15.52;;;14.20;;
36303;SDS011;22335;49.800;8.596;2023-04-08T06:55:44;15.15;;;13.75;;
36303;SDS011;22335;49.800;8.596;2023-04-08T07:02:28;14.68;;;13.48;;
36303;SDS011;22335;49.800;8.596;2023-04-08T07:09:13;15.02;;;13.82;;
36303;SDS011;22335;49.800;8.596;2023-04-08T07:15:56;15.25;;;13.95;;
36303;SDS011;22335;49.800;8.596;2023-04-08T07:22:40;15.13;;;13.75;;
36303;SDS011;22335;49.800;8.596;2023-04-08T07:29:25;14.85;;;13.50;;
36303;SDS011;22335;49.800;8.596;2023-04-08T07:36:08;21.75;;;19.80;;
36303;SDS011;22335;49.800;8.596;2023-04-08T07:42:52;15.00;;;13.60;;
36303;SDS011;22335;49.800;8.596;2023-04-08T07:49:37;16.48;;;14.95;;
36303;SDS011;22335;49.800;8.596;2023-04-08T07:56:21;14.10;;;12.80;;
36303;SDS011;22335;49.800;8.596;2023-04-08T08:03:04;13.88;;;12.70;;
36303;SDS011;22335;49.800;8.596;2023-04-08T08:09:49;13.50;;;12.13;;
36303;SDS011;22335;49.800;8.596;2023-04-08T08:16:33;14.38;;;12.88;;
36303;SDS011;22335;49.800;8.596;2023-04-08T08:23:16;13.65;;;12.35;;
36303;SDS011;22335;49.800;8.596;2023-04-08T08:30:01;16.23;;;14.63;;
36303;SDS011;22335;49.800;8.596;2023-04-08T08:36:45;21.73;;;16.95;;
36303;SDS011;22335;49.800;8.596;2023-04-08T08:43:29;18.73;;;16.92;;
36303;SDS011;22335;49.800;8.596;2023-04-08T08:50:15;18.52;;;16.73;;
36303;SDS011;22335;49.800;8.596;2023-04-08T08:56:58;19.45;;;17.55;;
36303;SDS011;22335;49.800;8.596;2023-04-08T09:03:42;20.95;;;18.75;;
36303;SDS011;22335;49.800;8.596;2023-04-08T09:10:28;20.95;;;19.13;;
36303;SDS011;22335;49.800;8.596;2023-04-08T09:17:11;19.75;;;18.00;;
36303;SDS011;22335;49.800;8.596;2023-04-08T09:23:54;18.85;;;17.23;;
36303;SDS011;22335;49.800;8.596;2023-04-08T09:30:39;16.77;;;15.27;;
36303;SDS011;22335;49.800;8.596;2023-04-08T09:37:23;16.88;;;15.40;;
36303;SDS011;22335;49.800;8.596;2023-04-08T09:44:08;17.63;;;16.02;;
36303;SDS011;22335;49.800;8.596;2023-04-08T09:50:55;16.73;;;15.32;;
36303;SDS011;22335;49.800;8.596;2023-04-08T09:57:40;15.48;;;14.18;;
36303;SDS011;22335;49.800;8.596;2023-04-08T10:04:28;14.60;;;13.40;;
36303;SDS011;22335;49.800;8.596;2023-04-08T10:11:15;16.03;;;14.40;;
36303;SDS011;22335;49.800;8.596;2023-04-08T10:25:27;14.50;;;13.05;;
36303;SDS011;22335;49.800;8.596;2023-04-08T10:39:12;13.90;;;12.80;;
36303;SDS011;22335;49.800;8.596;2023-04-08T10:45:56;14.32;;;13.00;;
36303;SDS011;22335;49.800;8.596;2023-04-08T10:52:46;12.82;;;11.63;;
36303;SDS011;22335;49.800;8.596;2023-04-08T10:59:30;13.35;;;12.13;;
36303;SDS011;22335;49.800;8.596;2023-04-08T11:06:14;11.75;;;10.82;;
36303;SDS011;22335;49.800;8.596;2023-04-08T11:12:59;13.73;;;12.43;;
36303;SDS011;22335;49.800;8.596;2023-04-08T11:19:43;13.07;;;11.95;;
36303;SDS011;22335;49.800;8.596;2023-04-08T11:26:28;12.13;;;11.10;;
36303;SDS011;22335;49.800;8.596;2023-04-08T11:33:13;11.75;;;10.65;;
36303;SDS011;22335;49.800;8.596;2023-04-08T11:39:57;12.10;;;11.00;;
36303;SDS011;22335;49.800;8.596;2023-04-08T11:46:40;11.85;;;10.85;;
36303;SDS011;22335;49.800;8.596;2023-04-08T12:00:28;13.57;;;12.18;;
36303;SDS011;22335;49.800;8.596;2023-04-08T12:07:13;12.35;;;11.25;;
36303;SDS011;22335;49.800;8.596;2023-04-08T12:13:58;13.25;;;12.07;;
36303;SDS011;22335;49.800;8.596;2023-04-08T12:20:43;13.10;;;11.90;;
36303;SDS011;22335;49.800;8.596;2023-04-08T12:27:26;13.15;;;11.95;;
36303;SDS011;22335;49.800;8.596;2023-04-08T12:34:11;12.90;;;11.80;;
36303;SDS011;22335;49.800;8.596;2023-04-08T12:40:54;10.88;;;9.93;;
36303;SDS011;22335;49.800;8.596;2023-04-08T12:47:38;10.48;;;9.55;;
36303;SDS011;22335;49.800;8.596;2023-04-08T12:54:22;10.77;;;9.68;;
36303;SDS011;22335;49.800;8.596;2023-04-08T13:01:06;10.15;;;9.32;;
36303;SDS011;22335;49.800;8.596;2023-04-08T13:07:50;10.63;;;9.70;;
36303;SDS011;22335;49.800;8.596;2023-04-08T13:14:34;10.50;;;9.50;;
36303;SDS011;22335;49.800;8.596;2023-04-08T13:21:18;9.45;;;8.55;;
36303;SDS011;22335;49.800;8.596;2023-04-08T13:28:02;9.63;;;8.75;;
36303;SDS011;22335;49.800;8.596;2023-04-08T13:34:47;10.90;;;9.90;;
36303;SDS011;22335;49.800;8.596;2023-04-08T13:41:31;10.95;;;9.95;;
36303;SDS011;22335;49.800;8.596;2023-04-08T13:48:15;10.52;;;9.73;;
36303;SDS011;22335;49.800;8.596;2023-04-08T13:54:59;10.25;;;9.35;;
36303;SDS011;22335;49.800;8.596;2023-04-08T14:01:43;10.38;;;9.48;;
36303;SDS011;22335;49.800;8.596;2023-04-08T14:08:26;10.35;;;9.55;;
36303;SDS011;22335;49.800;8.596;2023-04-08T14:15:11;10.32;;;9.50;;
36303;SDS011;22335;49.800;8.596;2023-04-08T14:21:55;11.07;;;10.10;;
36303;SDS011;22335;49.800;8.596;2023-04-08T14:28:38;11.90;;;10.88;;
36303;SDS011;22335;49.800;8.596;2023-04-08T14:35:23;11.57;;;10.52;;
36303;SDS011;22335;49.800;8.596;2023-04-08T14:42:06;12.80;;;11.40;;
36303;SDS011;22335;49.800;8.596;2023-04-08T14:48:49;12.30;;;11.18;;
36303;SDS011;22335;49.800;8.596;2023-04-08T14:55:34;12.68;;;11.45;;
36303;SDS011;22335;49.800;8.596;2023-04-08T15:02:18;13.85;;;12.00;;
36303;SDS011;22335;49.800;8.596;2023-04-08T15:09:02;13.18;;;11.82;;
36303;SDS011;22335;49.800;8.596;2023-04-08T15:15:48;13.20;;;12.10;;
36303;SDS011;22335;49.800;8.596;2023-04-08T15:22:32;13.40;;;12.20;;
36303;SDS011;22335;49.800;8.596;2023-04-08T15:29:15;13.65;;;12.45;;
36303;SDS011;22335;49.800;8.596;2023-04-08T15:36:00;13.07;;;11.88;;
36303;SDS011;22335;49.800;8.596;2023-04-08T15:42:44;13.05;;;11.20;;
36303;SDS011;22335;49.800;8.596;2023-04-08T15:49:27;13.38;;;12.27;;
36303;SDS011;22335;49.800;8.596;2023-04-08T15:56:13;13.60;;;12.40;;
36303;SDS011;22335;49.800;8.596;2023-04-08T16:02:58;13.25;;;12.05;;
36303;SDS011;22335;49.800;8.596;2023-04-08T16:09:42;12.68;;;11.60;;
36303;SDS011;22335;49.800;8.596;2023-04-08T16:16:27;13.85;;;12.65;;
36303;SDS011;22335;49.800;8.596;2023-04-08T16:23:11;13.60;;;12.40;;
36303;SDS011;22335;49.800;8.596;2023-04-08T16:29:55;13.13;;;11.85;;
36303;SDS011;22335;49.800;8.596;2023-04-08T16:36:40;13.80;;;12.52;;
36303;SDS011;22335;49.800;8.596;2023-04-08T16:43:24;13.23;;;12.02;;
36303;SDS011;22335;49.800;8.596;2023-04-08T16:50:08;13.32;;;12.23;;
36303;SDS011;22335;49.800;8.596;2023-04-08T16:56:53;12.82;;;11.63;;
36303;SDS011;22335;49.800;8.596;2023-04-08T17:03:37;12.18;;;11.18;;
36303;SDS011;22335;49.800;8.596;2023-04-08T17:10:21;13.35;;;12.25;;
36303;SDS011;22335;49.800;8.596;2023-04-08T17:17:06;16.60;;;15.10;;
36303;SDS011;22335;49.800;8.596;2023-04-08T17:23:50;14.52;;;13.25;;
36303;SDS011;22335;49.800;8.596;2023-04-08T17:30:33;14.35;;;13.05;;
36303;SDS011;22335;49.800;8.596;2023-04-08T17:37:19;14.10;;;12.82;;
36303;SDS011;22335;49.800;8.596;2023-04-08T17:44:02;13.90;;;12.70;;
36303;SDS011;22335;49.800;8.596;2023-04-08T17:50:46;15.60;;;14.20;;
36303;SDS011;22335;49.800;8.596;2023-04-08T17:57:30;14.73;;;13.50;;
36303;SDS011;22335;49.800;8.596;2023-04-08T18:04:14;15.07;;;13.77;;
36303;SDS011;22335;49.800;8.596;2023-04-08T18:10:57;15.77;;;14.35;;
36303;SDS011;22335;49.800;8.596;2023-04-08T18:17:42;14.25;;;12.95;;
36303;SDS011;22335;49.800;8.596;2023-04-08T18:24:25;13.30;;;12.20;;
36303;SDS011;22335;49.800;8.596;2023-04-08T18:31:09;13.02;;;11.82;;
36303;SDS011;22335;49.800;8.596;2023-04-08T18:37:54;11.85;;;10.85;;
36303;SDS011;22335;49.800;8.596;2023-04-08T18:44:37;11.38;;;10.48;;
36303;SDS011;22335;49.800;8.596;2023-04-08T18:51:21;9.60;;;8.80;;
36303;SDS011;22335;49.800;8.596;2023-04-08T18:58:06;8.73;;;7.93;;
36303;SDS011;22335;49.800;8.596;2023-04-08T19:04:49;7.72;;;7.22;;
36303;SDS011;22335;49.800;8.596;2023-04-08T19:11:33;7.65;;;7.15;;
36303;SDS011;22335;49.800;8.596;2023-04-08T19:18:18;9.85;;;9.15;;
36303;SDS011;22335;49.800;8.596;2023-04-08T19:25:01;7.95;;;7.45;;
36303;SDS011;22335;49.800;8.596;2023-04-08T19:31:45;8.57;;;7.88;;
36303;SDS011;22335;49.800;8.596;2023-04-08T19:38:29;8.90;;;8.30;;
36303;SDS011;22335;49.800;8.596;2023-04-08T19:45:13;9.20;;;8.50;;
36303;SDS011;22335;49.800;8.596;2023-04-08T19:51:57;9.80;;;9.00;;
36303;SDS011;22335;49.800;8.596;2023-04-08T19:58:42;9.77;;;8.98;;
36303;SDS011;22335;49.800;8.596;2023-04-08T20:05:26;8.68;;;8.07;;
36303;SDS011;22335;49.800;8.596;2023-04-08T20:12:10;8.98;;;8.38;;
36303;SDS011;22335;49.800;8.596;2023-04-08T20:18:55;9.98;;;9.05;;
36303;SDS011;22335;49.800;8.596;2023-04-08T20:25:38;9.80;;;9.00;;
36303;SDS011;22335;49.800;8.596;2023-04-08T20:32:22;10.20;;;9.43;;
36303;SDS011;22335;49.800;8.596;2023-04-08T20:39:09;9.95;;;9.15;;
36303;SDS011;22335;49.800;8.596;2023-04-08T20:45:53;10.57;;;9.77;;
36303;SDS011;22335;49.800;8.596;2023-04-08T20:52:36;9.80;;;9.07;;
36303;SDS011;22335;49.800;8.596;2023-04-08T20:59:21;11.05;;;10.05;;
36303;SDS011;22335;49.800;8.596;2023-04-08T21:06:04;11.13;;;10.27;;
36303;SDS011;22335;49.800;8.596;2023-04-08T21:12:48;10.73;;;9.93;;
36303;SDS011;22335;49.800;8.596;2023-04-08T21:19:33;10.57;;;9.75;;
36303;SDS011;22335;49.800;8.596;2023-04-08T21:26:16;15.35;;;14.05;;
36303;SDS011;22335;49.800;8.596;2023-04-08T21:32:59;13.10;;;12.10;;
36303;SDS011;22335;49.800;8.596;2023-04-08T21:39:44;11.85;;;10.95;;
36303;SDS011;22335;49.800;8.596;2023-04-08T21:46:28;10.98;;;10.18;;
36303;SDS011;22335;49.800;8.596;2023-04-08T21:53:11;11.57;;;10.68;;
36303;SDS011;22335;49.800;8.596;2023-04-08T21:59:56;12.05;;;11.10;;
36303;SDS011;22335;49.800;8.596;2023-04-08T22:06:40;12.27;;;11.18;;
36303;SDS011;22335;49.800;8.596;2023-04-08T22:13:23;12.00;;;11.10;;
36303;SDS011;22335;49.800;8.596;2023-04-08T22:20:09;11.10;;;10.30;;
36303;SDS011;22335;49.800;8.596;2023-04-08T22:26:53;10.43;;;9.63;;
36303;SDS011;22335;49.800;8.596;2023-04-08T22:33:38;11.63;;;10.65;;
36303;SDS011;22335;49.800;8.596;2023-04-08T22:40:23;10.90;;;10.10;;
36303;SDS011;22335;49.800;8.596;2023-04-08T22:47:06;11.25;;;10.35;;
36303;SDS011;22335;49.800;8.596;2023-04-08T22:53:50;12.45;;;11.45;;
36303;SDS011;22335;49.800;8.596;2023-04-08T23:00:34;14.23;;;13.07;;
36303;SDS011;22335;49.800;8.596;2023-04-08T23:07:18;13.02;;;11.82;;
36303;SDS011;22335;49.800;8.596;2023-04-08T23:14:02;13.05;;;11.95;;
36303;SDS011;22335;49.800;8.596;2023-04-08T23:20:50;15.43;;;13.93;;
36303;SDS011;22335;49.800;8.596;2023-04-08T23:27:34;14.60;;;13.25;;
36303;SDS011;22335;49.800;8.596;2023-04-08T23:34:18;15.43;;;13.85;;
36303;SDS011;22335;49.800;8.596;2023-04-08T23:41:03;15.88;;;14.13;;
36303;SDS011;22335;49.800;8.596;2023-04-08T23:47:47;16.70;;;14.65;;
36303;SDS011;22335;49.800;8.596;2023-04-08T23:54:30;17.13;;;15.30;;
